sensor_id;sensor_type;location;lat;lon;timestamp;temperature;humidity
7218;DHT22;3650;53.580;10.094;2023-07-13T00:00:17;18.90;96.40
7218;DHT22;3650;53.580;10.094;2023-07-13T00:02:44;18.90;96.50
7218;DHT22;3650;53.580;10.094;2023-07-13T00:05:11;18.90;96.50
7218;DHT22;3650;53.580;10.094;2023-07-13T00:07:38;18.90;96.30
7218;DHT22;3650;53.580;10.094;2023-07-13T00:10:08;18.90;96.40
7218;DHT22;3650;53.580;10.094;2023-07-13T00:12:36;18.80;96.10
7218;DHT22;3650;53.580;10.094;2023-07-13T00:15:06;18.80;96.00
7218;DHT22;3650;53.580;10.094;2023-07-13T00:17:33;18.80;95.80
7218;DHT22;3650;53.580;10.094;2023-07-13T00:20:00;18.80;95.60
7218;DHT22;3650;53.580;10.094;2023-07-13T00:22:29;18.80;95.80
7218;DHT22;3650;53.580;10.094;2023-07-13T00:24:56;18.80;95.80
7218;DHT22;3650;53.580;10.094;2023-07-13T00:27:25;18.80;95.80
7218;DHT22;3650;53.580;10.094;2023-07-13T00:29:52;18.80;95.80
7218;DHT22;3650;53.580;10.094;2023-07-13T00:32:19;18.70;95.70
7218;DHT22;3650;53.580;10.094;2023-07-13T00:34:46;18.70;95.40
7218;DHT22;3650;53.580;10.094;2023-07-13T00:37:13;18.70;95.10
7218;DHT22;3650;53.580;10.094;2023-07-13T00:39:39;18.70;95.20
7218;DHT22;3650;53.580;10.094;2023-07-13T00:42:06;18.60;95.20
7218;DHT22;3650;53.580;10.094;2023-07-13T00:44:35;18.60;95.30
7218;DHT22;3650;53.580;10.094;2023-07-13T00:47:02;18.60;95.30
7218;DHT22;3650;53.580;10.094;2023-07-13T00:49:30;18.60;95.50
7218;DHT22;3650;53.580;10.094;2023-07-13T00:52:03;18.50;95.60
7218;DHT22;3650;53.580;10.094;2023-07-13T00:54:33;18.50;95.70
7218;DHT22;3650;53.580;10.094;2023-07-13T00:57:03;18.40;95.90
7218;DHT22;3650;53.580;10.094;2023-07-13T00:59:31;18.40;96.10
7218;DHT22;3650;53.580;10.094;2023-07-13T01:01:59;18.40;96.20
7218;DHT22;3650;53.580;10.094;2023-07-13T01:04:26;18.40;96.40
7218;DHT22;3650;53.580;10.094;2023-07-13T01:06:53;18.40;96.40
7218;DHT22;3650;53.580;10.094;2023-07-13T01:09:20;18.40;96.40
7218;DHT22;3650;53.580;10.094;2023-07-13T01:11:47;18.30;96.50
7218;DHT22;3650;53.580;10.094;2023-07-13T01:14:14;18.30;96.50
7218;DHT22;3650;53.580;10.094;2023-07-13T01:16:43;18.40;96.50
7218;DHT22;3650;53.580;10.094;2023-07-13T01:19:21;18.40;96.30
7218;DHT22;3650;53.580;10.094;2023-07-13T01:21:53;18.40;96.30
7218;DHT22;3650;53.580;10.094;2023-07-13T01:24:20;18.40;96.10
7218;DHT22;3650;53.580;10.094;2023-07-13T01:26:46;18.30;96.00
7218;DHT22;3650;53.580;10.094;2023-07-13T01:29:13;18.30;96.10
7218;DHT22;3650;53.580;10.094;2023-07-13T01:31:40;18.30;96.10
7218;DHT22;3650;53.580;10.094;2023-07-13T01:34:10;18.30;96.30
7218;DHT22;3650;53.580;10.094;2023-07-13T01:36:36;18.30;96.30
7218;DHT22;3650;53.580;10.094;2023-07-13T01:39:05;18.30;96.40
7218;DHT22;3650;53.580;10.094;2023-07-13T01:41:32;18.30;96.40
7218;DHT22;3650;53.580;10.094;2023-07-13T01:43:59;18.30;96.40
7218;DHT22;3650;53.580;10.094;2023-07-13T01:46:25;18.30;96.50
7218;DHT22;3650;53.580;10.094;2023-07-13T01:48:52;18.30;96.10
7218;DHT22;3650;53.580;10.094;2023-07-13T01:51:19;18.30;95.90
7218;DHT22;3650;53.580;10.094;2023-07-13T01:53:46;18.30;96.00
7218;DHT22;3650;53.580;10.094;2023-07-13T01:56:14;18.30;96.00
7218;DHT22;3650;53.580;10.094;2023-07-13T01:58:41;18.30;96.10
7218;DHT22;3650;53.580;10.094;2023-07-13T02:01:07;18.30;96.10
7218;DHT22;3650;53.580;10.094;2023-07-13T02:03:34;18.30;96.10
7218;DHT22;3650;53.580;10.094;2023-07-13T02:06:01;18.30;96.10
7218;DHT22;3650;53.580;10.094;2023-07-13T02:08:28;18.30;96.10
7218;DHT22;3650;53.580;10.094;2023-07-13T02:10:55;18.30;96.10
7218;DHT22;3650;53.580;10.094;2023-07-13T02:13:23;18.30;96.00
7218;DHT22;3650;53.580;10.094;2023-07-13T02:15:50;18.30;96.10
7218;DHT22;3650;53.580;10.094;2023-07-13T02:18:17;18.30;96.10
7218;DHT22;3650;53.580;10.094;2023-07-13T02:20:45;18.30;95.90
7218;DHT22;3650;53.580;10.094;2023-07-13T02:23:12;18.30;95.80
7218;DHT22;3650;53.580;10.094;2023-07-13T02:25:39;18.30;95.70
7218;DHT22;3650;53.580;10.094;2023-07-13T02:28:06;18.40;95.60
7218;DHT22;3650;53.580;10.094;2023-07-13T02:30:34;18.40;95.60
7218;DHT22;3650;53.580;10.094;2023-07-13T02:33:01;18.40;95.40
7218;DHT22;3650;53.580;10.094;2023-07-13T02:35:28;18.40;95.30
7218;DHT22;3650;53.580;10.094;2023-07-13T02:37:55;18.40;95.30
7218;DHT22;3650;53.580;10.094;2023-07-13T02:40:22;18.40;95.10
7218;DHT22;3650;53.580;10.094;2023-07-13T02:42:49;18.40;95.00
7218;DHT22;3650;53.580;10.094;2023-07-13T02:45:16;18.40;94.90
7218;DHT22;3650;53.580;10.094;2023-07-13T02:47:44;18.40;94.90
7218;DHT22;3650;53.580;10.094;2023-07-13T02:50:11;18.40;94.80
7218;DHT22;3650;53.580;10.094;2023-07-13T02:52:38;18.40;95.00
7218;DHT22;3650;53.580;10.094;2023-07-13T02:55:05;18.40;94.50
7218;DHT22;3650;53.580;10.094;2023-07-13T02:57:32;18.40;94.50
7218;DHT22;3650;53.580;10.094;2023-07-13T02:59:59;18.40;94.50
7218;DHT22;3650;53.580;10.094;2023-07-13T03:02:26;18.40;94.40
7218;DHT22;3650;53.580;10.094;2023-07-13T03:04:55;18.40;94.30
7218;DHT22;3650;53.580;10.094;2023-07-13T03:07:21;18.40;94.20
7218;DHT22;3650;53.580;10.094;2023-07-13T03:09:48;18.40;94.00
7218;DHT22;3650;53.580;10.094;2023-07-13T03:12:15;18.40;94.00
7218;DHT22;3650;53.580;10.094;2023-07-13T03:14:42;18.40;94.00
7218;DHT22;3650;53.580;10.094;2023-07-13T03:17:09;18.40;94.00
7218;DHT22;3650;53.580;10.094;2023-07-13T03:19:35;18.40;93.70
7218;DHT22;3650;53.580;10.094;2023-07-13T03:22:04;18.40;93.80
7218;DHT22;3650;53.580;10.094;2023-07-13T03:24:32;18.30;93.90
7218;DHT22;3650;53.580;10.094;2023-07-13T03:27:01;18.30;94.00
7218;DHT22;3650;53.580;10.094;2023-07-13T03:29:28;18.30;94.30
7218;DHT22;3650;53.580;10.094;2023-07-13T03:31:54;18.30;94.00
7218;DHT22;3650;53.580;10.094;2023-07-13T03:34:21;18.30;93.70
7218;DHT22;3650;53.580;10.094;2023-07-13T03:36:48;18.30;93.80
7218;DHT22;3650;53.580;10.094;2023-07-13T03:39:16;18.30;93.60
7218;DHT22;3650;53.580;10.094;2023-07-13T03:41:43;18.30;93.50
7218;DHT22;3650;53.580;10.094;2023-07-13T03:44:10;18.30;93.30
7218;DHT22;3650;53.580;10.094;2023-07-13T03:46:37;18.30;93.20
7218;DHT22;3650;53.580;10.094;2023-07-13T03:49:05;18.30;93.20
7218;DHT22;3650;53.580;10.094;2023-07-13T03:51:32;18.30;93.00
7218;DHT22;3650;53.580;10.094;2023-07-13T03:53:58;18.20;92.90
7218;DHT22;3650;53.580;10.094;2023-07-13T03:56:26;18.30;92.80
7218;DHT22;3650;53.580;10.094;2023-07-13T03:58:53;18.30;92.80
7218;DHT22;3650;53.580;10.094;2023-07-13T04:01:22;18.40;92.70
7218;DHT22;3650;53.580;10.094;2023-07-13T04:03:50;18.30;92.60
7218;DHT22;3650;53.580;10.094;2023-07-13T04:06:20;18.30;92.60
7218;DHT22;3650;53.580;10.094;2023-07-13T04:08:49;18.30;92.60
7218;DHT22;3650;53.580;10.094;2023-07-13T04:11:17;18.30;92.70
7218;DHT22;3650;53.580;10.094;2023-07-13T04:13:45;18.30;92.80
7218;DHT22;3650;53.580;10.094;2023-07-13T04:16:13;18.30;92.70
7218;DHT22;3650;53.580;10.094;2023-07-13T04:18:39;18.30;92.70
7218;DHT22;3650;53.580;10.094;2023-07-13T04:21:07;18.20;92.70
7218;DHT22;3650;53.580;10.094;2023-07-13T04:23:34;18.20;92.70
7218;DHT22;3650;53.580;10.094;2023-07-13T04:26:00;18.20;92.60
7218;DHT22;3650;53.580;10.094;2023-07-13T04:28:27;18.20;92.40
7218;DHT22;3650;53.580;10.094;2023-07-13T04:30:55;18.20;92.70
7218;DHT22;3650;53.580;10.094;2023-07-13T04:33:23;18.20;92.60
7218;DHT22;3650;53.580;10.094;2023-07-13T04:35:50;18.20;92.60
7218;DHT22;3650;53.580;10.094;2023-07-13T04:38:20;18.20;92.50
7218;DHT22;3650;53.580;10.094;2023-07-13T04:40:47;18.20;92.30
7218;DHT22;3650;53.580;10.094;2023-07-13T04:43:14;18.20;92.00
7218;DHT22;3650;53.580;10.094;2023-07-13T04:45:41;18.20;92.00
7218;DHT22;3650;53.580;10.094;2023-07-13T04:48:09;18.20;92.00
7218;DHT22;3650;53.580;10.094;2023-07-13T04:50:36;18.30;92.30
7218;DHT22;3650;53.580;10.094;2023-07-13T04:53:03;18.30;92.40
7218;DHT22;3650;53.580;10.094;2023-07-13T04:55:30;18.30;92.00
7218;DHT22;3650;53.580;10.094;2023-07-13T04:57:57;18.30;92.10
7218;DHT22;3650;53.580;10.094;2023-07-13T05:00:25;18.40;92.20
7218;DHT22;3650;53.580;10.094;2023-07-13T05:02:53;18.40;92.20
7218;DHT22;3650;53.580;10.094;2023-07-13T05:05:21;18.40;92.20
7218;DHT22;3650;53.580;10.094;2023-07-13T05:07:48;18.40;91.90
7218;DHT22;3650;53.580;10.094;2023-07-13T05:10:15;18.50;91.80
7218;DHT22;3650;53.580;10.094;2023-07-13T05:12:42;18.50;91.90
7218;DHT22;3650;53.580;10.094;2023-07-13T05:15:10;18.50;91.70
7218;DHT22;3650;53.580;10.094;2023-07-13T05:17:36;18.50;91.50
7218;DHT22;3650;53.580;10.094;2023-07-13T05:20:05;18.50;91.20
7218;DHT22;3650;53.580;10.094;2023-07-13T05:22:33;18.60;90.50
7218;DHT22;3650;53.580;10.094;2023-07-13T05:25:01;18.60;89.60
7218;DHT22;3650;53.580;10.094;2023-07-13T05:27:28;18.70;88.60
7218;DHT22;3650;53.580;10.094;2023-07-13T05:29:55;18.70;88.10
7218;DHT22;3650;53.580;10.094;2023-07-13T05:32:21;18.70;88.60
7218;DHT22;3650;53.580;10.094;2023-07-13T05:34:48;18.80;88.60
7218;DHT22;3650;53.580;10.094;2023-07-13T05:37:15;18.80;87.60
7218;DHT22;3650;53.580;10.094;2023-07-13T05:39:43;18.80;87.60
7218;DHT22;3650;53.580;10.094;2023-07-13T05:42:10;18.90;87.00
7218;DHT22;3650;53.580;10.094;2023-07-13T05:44:37;18.90;87.00
7218;DHT22;3650;53.580;10.094;2023-07-13T05:47:04;19.00;86.70
7218;DHT22;3650;53.580;10.094;2023-07-13T05:49:31;19.00;86.70
7218;DHT22;3650;53.580;10.094;2023-07-13T05:51:58;19.10;87.30
7218;DHT22;3650;53.580;10.094;2023-07-13T05:54:25;19.10;86.80
7218;DHT22;3650;53.580;10.094;2023-07-13T05:56:53;19.20;86.00
7218;DHT22;3650;53.580;10.094;2023-07-13T05:59:20;19.20;85.00
7218;DHT22;3650;53.580;10.094;2023-07-13T06:01:47;19.20;84.70
7218;DHT22;3650;53.580;10.094;2023-07-13T06:04:14;19.20;85.50
7218;DHT22;3650;53.580;10.094;2023-07-13T06:06:40;19.30;85.70
7218;DHT22;3650;53.580;10.094;2023-07-13T06:09:07;19.30;85.30
7218;DHT22;3650;53.580;10.094;2023-07-13T06:11:34;19.30;84.60
7218;DHT22;3650;53.580;10.094;2023-07-13T06:14:02;19.30;84.50
7218;DHT22;3650;53.580;10.094;2023-07-13T06:16:30;19.30;84.40
7218;DHT22;3650;53.580;10.094;2023-07-13T06:18:56;19.40;84.40
7218;DHT22;3650;53.580;10.094;2023-07-13T06:21:23;19.40;83.60
7218;DHT22;3650;53.580;10.094;2023-07-13T06:23:51;19.40;83.90
7218;DHT22;3650;53.580;10.094;2023-07-13T06:26:19;19.40;83.30
7218;DHT22;3650;53.580;10.094;2023-07-13T06:28:46;19.40;83.60
7218;DHT22;3650;53.580;10.094;2023-07-13T06:31:15;19.40;82.70
7218;DHT22;3650;53.580;10.094;2023-07-13T06:33:42;19.40;82.50
7218;DHT22;3650;53.580;10.094;2023-07-13T06:36:09;19.40;82.10
7218;DHT22;3650;53.580;10.094;2023-07-13T06:38:36;19.40;82.10
7218;DHT22;3650;53.580;10.094;2023-07-13T06:41:04;19.40;82.10
7218;DHT22;3650;53.580;10.094;2023-07-13T06:43:31;19.40;81.50
7218;DHT22;3650;53.580;10.094;2023-07-13T06:45:58;19.40;81.50
7218;DHT22;3650;53.580;10.094;2023-07-13T06:48:27;19.40;81.50
7218;DHT22;3650;53.580;10.094;2023-07-13T06:50:53;19.40;81.50
7218;DHT22;3650;53.580;10.094;2023-07-13T06:53:20;19.40;81.50
7218;DHT22;3650;53.580;10.094;2023-07-13T06:55:48;19.40;81.50
7218;DHT22;3650;53.580;10.094;2023-07-13T06:58:15;19.40;81.50
7218;DHT22;3650;53.580;10.094;2023-07-13T07:00:43;19.40;82.60
7218;DHT22;3650;53.580;10.094;2023-07-13T07:03:10;19.40;81.50
7218;DHT22;3650;53.580;10.094;2023-07-13T07:05:38;19.40;81.50
7218;DHT22;3650;53.580;10.094;2023-07-13T07:08:05;19.40;82.00
7218;DHT22;3650;53.580;10.094;2023-07-13T07:10:32;19.40;82.30
7218;DHT22;3650;53.580;10.094;2023-07-13T07:12:59;19.40;82.50
7218;DHT22;3650;53.580;10.094;2023-07-13T07:15:26;19.40;82.70
7218;DHT22;3650;53.580;10.094;2023-07-13T07:17:53;19.40;82.90
7218;DHT22;3650;53.580;10.094;2023-07-13T07:20:20;19.50;83.20
7218;DHT22;3650;53.580;10.094;2023-07-13T07:22:49;19.50;82.60
7218;DHT22;3650;53.580;10.094;2023-07-13T07:25:16;19.40;82.70
7218;DHT22;3650;53.580;10.094;2023-07-13T07:27:43;19.50;83.40
7218;DHT22;3650;53.580;10.094;2023-07-13T07:30:10;19.50;83.20
7218;DHT22;3650;53.580;10.094;2023-07-13T07:32:38;19.50;83.70
7218;DHT22;3650;53.580;10.094;2023-07-13T07:35:05;19.50;84.20
7218;DHT22;3650;53.580;10.094;2023-07-13T07:37:32;19.50;84.30
7218;DHT22;3650;53.580;10.094;2023-07-13T07:40:00;19.60;83.40
7218;DHT22;3650;53.580;10.094;2023-07-13T07:42:27;19.60;82.50
7218;DHT22;3650;53.580;10.094;2023-07-13T07:44:54;19.60;83.10
7218;DHT22;3650;53.580;10.094;2023-07-13T07:47:21;19.70;82.40
7218;DHT22;3650;53.580;10.094;2023-07-13T07:49:48;19.70;82.40
7218;DHT22;3650;53.580;10.094;2023-07-13T07:52:15;19.70;82.00
7218;DHT22;3650;53.580;10.094;2023-07-13T07:54:42;19.70;81.70
7218;DHT22;3650;53.580;10.094;2023-07-13T07:57:10;19.80;81.80
7218;DHT22;3650;53.580;10.094;2023-07-13T07:59:37;19.80;81.90
7218;DHT22;3650;53.580;10.094;2023-07-13T08:02:04;19.80;81.90
7218;DHT22;3650;53.580;10.094;2023-07-13T08:04:31;19.80;82.90
7218;DHT22;3650;53.580;10.094;2023-07-13T08:06:58;19.80;81.80
7218;DHT22;3650;53.580;10.094;2023-07-13T08:09:25;19.80;81.90
7218;DHT22;3650;53.580;10.094;2023-07-13T08:11:51;19.90;81.00
7218;DHT22;3650;53.580;10.094;2023-07-13T08:14:21;19.90;79.70
7218;DHT22;3650;53.580;10.094;2023-07-13T08:16:48;19.90;79.40
7218;DHT22;3650;53.580;10.094;2023-07-13T08:19:15;19.90;79.60
7218;DHT22;3650;53.580;10.094;2023-07-13T08:21:41;20.10;79.70
7218;DHT22;3650;53.580;10.094;2023-07-13T08:24:09;20.00;79.20
7218;DHT22;3650;53.580;10.094;2023-07-13T08:26:35;20.00;78.80
7218;DHT22;3650;53.580;10.094;2023-07-13T08:29:02;20.10;78.20
7218;DHT22;3650;53.580;10.094;2023-07-13T08:31:30;20.10;77.30
7218;DHT22;3650;53.580;10.094;2023-07-13T08:33:57;20.20;77.50
7218;DHT22;3650;53.580;10.094;2023-07-13T08:36:25;20.20;77.00
7218;DHT22;3650;53.580;10.094;2023-07-13T08:38:52;20.20;77.20
7218;DHT22;3650;53.580;10.094;2023-07-13T08:41:20;20.30;78.70
7218;DHT22;3650;53.580;10.094;2023-07-13T08:43:50;20.30;76.80
7218;DHT22;3650;53.580;10.094;2023-07-13T08:46:19;20.30;76.50
7218;DHT22;3650;53.580;10.094;2023-07-13T08:48:51;20.40;75.80
7218;DHT22;3650;53.580;10.094;2023-07-13T08:51:29;20.40;75.50
7218;DHT22;3650;53.580;10.094;2023-07-13T08:54:02;20.40;75.00
7218;DHT22;3650;53.580;10.094;2023-07-13T08:56:31;20.50;74.10
7218;DHT22;3650;53.580;10.094;2023-07-13T08:59:01;20.50;72.70
7218;DHT22;3650;53.580;10.094;2023-07-13T09:01:45;20.50;72.80
7218;DHT22;3650;53.580;10.094;2023-07-13T09:04:18;20.50;73.10
7218;DHT22;3650;53.580;10.094;2023-07-13T09:06:58;20.60;73.70
7218;DHT22;3650;53.580;10.094;2023-07-13T09:09:34;20.60;74.30
7218;DHT22;3650;53.580;10.094;2023-07-13T09:12:11;20.60;74.00
7218;DHT22;3650;53.580;10.094;2023-07-13T09:14:43;20.60;73.10
7218;DHT22;3650;53.580;10.094;2023-07-13T09:17:16;20.60;71.90
7218;DHT22;3650;53.580;10.094;2023-07-13T09:19:47;20.60;71.20
7218;DHT22;3650;53.580;10.094;2023-07-13T09:22:17;20.60;70.10
7218;DHT22;3650;53.580;10.094;2023-07-13T09:24:52;20.60;69.90
7218;DHT22;3650;53.580;10.094;2023-07-13T09:27:23;20.60;69.90
7218;DHT22;3650;53.580;10.094;2023-07-13T09:29:54;20.70;69.10
7218;DHT22;3650;53.580;10.094;2023-07-13T09:32:25;20.70;68.40
7218;DHT22;3650;53.580;10.094;2023-07-13T09:34:54;20.70;67.90
7218;DHT22;3650;53.580;10.094;2023-07-13T09:37:24;20.70;67.70
7218;DHT22;3650;53.580;10.094;2023-07-13T09:39:54;20.70;67.90
7218;DHT22;3650;53.580;10.094;2023-07-13T09:42:22;20.70;67.20
7218;DHT22;3650;53.580;10.094;2023-07-13T09:44:54;20.70;67.50
7218;DHT22;3650;53.580;10.094;2023-07-13T09:47:23;20.80;67.80
7218;DHT22;3650;53.580;10.094;2023-07-13T09:49:58;20.80;67.20
7218;DHT22;3650;53.580;10.094;2023-07-13T09:52:26;20.80;66.70
7218;DHT22;3650;53.580;10.094;2023-07-13T09:54:54;20.80;66.00
7218;DHT22;3650;53.580;10.094;2023-07-13T09:57:26;20.90;66.10
7218;DHT22;3650;53.580;10.094;2023-07-13T09:59:54;20.90;65.50
7218;DHT22;3650;53.580;10.094;2023-07-13T10:02:26;20.90;63.90
7218;DHT22;3650;53.580;10.094;2023-07-13T10:05:00;20.90;60.30
7218;DHT22;3650;53.580;10.094;2023-07-13T10:07:29;20.90;59.30
7218;DHT22;3650;53.580;10.094;2023-07-13T10:09:59;20.90;59.30
7218;DHT22;3650;53.580;10.094;2023-07-13T10:12:29;20.90;59.30
7218;DHT22;3650;53.580;10.094;2023-07-13T10:14:58;20.90;58.30
7218;DHT22;3650;53.580;10.094;2023-07-13T10:17:29;21.00;57.60
7218;DHT22;3650;53.580;10.094;2023-07-13T10:20:01;21.00;56.90
7218;DHT22;3650;53.580;10.094;2023-07-13T10:22:44;20.90;57.00
7218;DHT22;3650;53.580;10.094;2023-07-13T10:25:18;21.00;56.70
7218;DHT22;3650;53.580;10.094;2023-07-13T10:27:47;21.00;55.80
7218;DHT22;3650;53.580;10.094;2023-07-13T10:30:19;21.00;54.80
7218;DHT22;3650;53.580;10.094;2023-07-13T10:32:49;21.00;55.70
7218;DHT22;3650;53.580;10.094;2023-07-13T10:35:20;21.00;55.30
7218;DHT22;3650;53.580;10.094;2023-07-13T10:37:51;21.00;55.40
7218;DHT22;3650;53.580;10.094;2023-07-13T10:40:22;21.00;54.70
7218;DHT22;3650;53.580;10.094;2023-07-13T10:42:51;21.10;52.20
7218;DHT22;3650;53.580;10.094;2023-07-13T10:45:21;21.10;53.30
7218;DHT22;3650;53.580;10.094;2023-07-13T10:47:49;21.20;50.80
7218;DHT22;3650;53.580;10.094;2023-07-13T10:50:22;21.20;51.90
7218;DHT22;3650;53.580;10.094;2023-07-13T10:52:51;21.30;52.40
7218;DHT22;3650;53.580;10.094;2023-07-13T10:55:34;21.30;51.90
7218;DHT22;3650;53.580;10.094;2023-07-13T10:58:03;21.40;51.20
7218;DHT22;3650;53.580;10.094;2023-07-13T11:00:46;21.50;50.20
7218;DHT22;3650;53.580;10.094;2023-07-13T11:03:16;21.60;48.20
7218;DHT22;3650;53.580;10.094;2023-07-13T11:05:48;21.60;46.20
7218;DHT22;3650;53.580;10.094;2023-07-13T11:08:20;21.70;47.20
7218;DHT22;3650;53.580;10.094;2023-07-13T11:10:53;21.70;45.20
7218;DHT22;3650;53.580;10.094;2023-07-13T11:13:55;21.70;47.40
7218;DHT22;3650;53.580;10.094;2023-07-13T11:16:50;21.80;45.10
7218;DHT22;3650;53.580;10.094;2023-07-13T11:22:25;21.90;43.10
7218;DHT22;3650;53.580;10.094;2023-07-13T11:25:25;22.00;43.00
7218;DHT22;3650;53.580;10.094;2023-07-13T11:28:07;22.00;45.60
7218;DHT22;3650;53.580;10.094;2023-07-13T11:30:41;22.10;43.50
7218;DHT22;3650;53.580;10.094;2023-07-13T11:33:15;22.20;42.60
7218;DHT22;3650;53.580;10.094;2023-07-13T11:35:48;22.20;43.00
7218;DHT22;3650;53.580;10.094;2023-07-13T11:38:19;22.30;43.10
7218;DHT22;3650;53.580;10.094;2023-07-13T11:40:47;22.30;42.60
7218;DHT22;3650;53.580;10.094;2023-07-13T11:43:15;22.40;41.50
7218;DHT22;3650;53.580;10.094;2023-07-13T11:45:43;22.40;41.10
7218;DHT22;3650;53.580;10.094;2023-07-13T11:48:22;22.40;40.90
7218;DHT22;3650;53.580;10.094;2023-07-13T11:50:56;22.50;40.90
7218;DHT22;3650;53.580;10.094;2023-07-13T11:53:27;22.50;39.60
7218;DHT22;3650;53.580;10.094;2023-07-13T11:55:55;22.50;39.20
7218;DHT22;3650;53.580;10.094;2023-07-13T11:58:24;22.50;38.00
7218;DHT22;3650;53.580;10.094;2023-07-13T12:00:52;22.50;37.00
7218;DHT22;3650;53.580;10.094;2023-07-13T12:03:22;22.50;36.60
7218;DHT22;3650;53.580;10.094;2023-07-13T12:05:58;22.50;37.70
7218;DHT22;3650;53.580;10.094;2023-07-13T12:08:28;22.40;37.80
7218;DHT22;3650;53.580;10.094;2023-07-13T12:11:09;22.40;38.20
7218;DHT22;3650;53.580;10.094;2023-07-13T12:13:39;22.40;38.00
7218;DHT22;3650;53.580;10.094;2023-07-13T12:16:15;22.40;37.80
7218;DHT22;3650;53.580;10.094;2023-07-13T12:18:43;22.30;37.80
7218;DHT22;3650;53.580;10.094;2023-07-13T12:21:13;22.30;37.90
7218;DHT22;3650;53.580;10.094;2023-07-13T12:23:44;22.30;38.20
7218;DHT22;3650;53.580;10.094;2023-07-13T12:26:12;22.20;38.40
7218;DHT22;3650;53.580;10.094;2023-07-13T12:28:45;22.20;41.30
7218;DHT22;3650;53.580;10.094;2023-07-13T12:31:25;22.00;45.90
7218;DHT22;3650;53.580;10.094;2023-07-13T12:34:00;21.80;49.20
7218;DHT22;3650;53.580;10.094;2023-07-13T12:36:31;21.70;52.40
7218;DHT22;3650;53.580;10.094;2023-07-13T12:39:04;21.50;55.40
7218;DHT22;3650;53.580;10.094;2023-07-13T12:41:36;21.40;57.10
7218;DHT22;3650;53.580;10.094;2023-07-13T12:44:04;21.20;58.00
7218;DHT22;3650;53.580;10.094;2023-07-13T12:46:31;21.00;60.30
7218;DHT22;3650;53.580;10.094;2023-07-13T12:48:58;20.80;63.70
7218;DHT22;3650;53.580;10.094;2023-07-13T12:51:27;20.70;65.00
7218;DHT22;3650;53.580;10.094;2023-07-13T12:53:58;20.50;68.20
7218;DHT22;3650;53.580;10.094;2023-07-13T12:56:27;20.50;71.20
7218;DHT22;3650;53.580;10.094;2023-07-13T12:58:58;20.40;76.90
7218;DHT22;3650;53.580;10.094;2023-07-13T13:01:28;20.30;78.40
7218;DHT22;3650;53.580;10.094;2023-07-13T13:03:56;20.30;85.40
7218;DHT22;3650;53.580;10.094;2023-07-13T13:06:25;20.30;87.20
7218;DHT22;3650;53.580;10.094;2023-07-13T13:08:53;20.30;89.20
7218;DHT22;3650;53.580;10.094;2023-07-13T13:11:22;20.20;86.80
7218;DHT22;3650;53.580;10.094;2023-07-13T13:13:51;20.20;87.00
7218;DHT22;3650;53.580;10.094;2023-07-13T13:16:21;20.20;89.80
7218;DHT22;3650;53.580;10.094;2023-07-13T13:18:49;20.20;88.70
7218;DHT22;3650;53.580;10.094;2023-07-13T13:21:16;20.10;86.80
7218;DHT22;3650;53.580;10.094;2023-07-13T13:23:44;20.10;86.20
7218;DHT22;3650;53.580;10.094;2023-07-13T13:26:13;20.10;86.00
7218;DHT22;3650;53.580;10.094;2023-07-13T13:28:41;20.10;87.20
7218;DHT22;3650;53.580;10.094;2023-07-13T13:31:11;20.10;85.80
7218;DHT22;3650;53.580;10.094;2023-07-13T13:33:39;20.10;85.00
7218;DHT22;3650;53.580;10.094;2023-07-13T13:36:14;20.20;85.70
7218;DHT22;3650;53.580;10.094;2023-07-13T13:38:42;20.20;85.60
7218;DHT22;3650;53.580;10.094;2023-07-13T13:41:10;20.20;83.00
7218;DHT22;3650;53.580;10.094;2023-07-13T13:43:39;20.20;82.00
7218;DHT22;3650;53.580;10.094;2023-07-13T13:46:14;20.20;82.20
7218;DHT22;3650;53.580;10.094;2023-07-13T13:48:41;20.20;80.40
7218;DHT22;3650;53.580;10.094;2023-07-13T13:51:14;20.20;82.20
7218;DHT22;3650;53.580;10.094;2023-07-13T13:53:41;20.20;82.20
7218;DHT22;3650;53.580;10.094;2023-07-13T13:56:08;20.20;83.00
7218;DHT22;3650;53.580;10.094;2023-07-13T13:58:35;20.20;83.50
7218;DHT22;3650;53.580;10.094;2023-07-13T14:01:02;20.20;82.20
7218;DHT22;3650;53.580;10.094;2023-07-13T14:03:32;20.20;81.00
7218;DHT22;3650;53.580;10.094;2023-07-13T14:05:59;20.20;80.80
7218;DHT22;3650;53.580;10.094;2023-07-13T14:08:26;20.20;83.00
7218;DHT22;3650;53.580;10.094;2023-07-13T14:10:55;20.20;81.20
7218;DHT22;3650;53.580;10.094;2023-07-13T14:13:26;20.20;78.50
7218;DHT22;3650;53.580;10.094;2023-07-13T14:15:54;20.20;79.00
7218;DHT22;3650;53.580;10.094;2023-07-13T14:18:22;20.20;76.40
7218;DHT22;3650;53.580;10.094;2023-07-13T14:20:50;20.20;76.60
7218;DHT22;3650;53.580;10.094;2023-07-13T14:23:18;20.20;76.20
7218;DHT22;3650;53.580;10.094;2023-07-13T14:25:45;20.20;76.00
7218;DHT22;3650;53.580;10.094;2023-07-13T14:28:20;20.30;75.10
7218;DHT22;3650;53.580;10.094;2023-07-13T14:30:47;20.30;75.90
7218;DHT22;3650;53.580;10.094;2023-07-13T14:33:14;20.30;77.20
7218;DHT22;3650;53.580;10.094;2023-07-13T14:35:41;20.30;76.00
7218;DHT22;3650;53.580;10.094;2023-07-13T14:38:13;20.30;76.30
7218;DHT22;3650;53.580;10.094;2023-07-13T14:40:40;20.40;75.00
7218;DHT22;3650;53.580;10.094;2023-07-13T14:43:10;20.40;75.50
7218;DHT22;3650;53.580;10.094;2023-07-13T14:45:41;20.40;75.30
7218;DHT22;3650;53.580;10.094;2023-07-13T14:48:14;20.50;75.10
7218;DHT22;3650;53.580;10.094;2023-07-13T14:50:42;20.60;75.00
7218;DHT22;3650;53.580;10.094;2023-07-13T14:53:11;20.70;75.30
7218;DHT22;3650;53.580;10.094;2023-07-13T14:55:38;20.90;73.50
7218;DHT22;3650;53.580;10.094;2023-07-13T14:58:05;20.90;71.20
7218;DHT22;3650;53.580;10.094;2023-07-13T15:00:32;21.00;67.10
7218;DHT22;3650;53.580;10.094;2023-07-13T15:03:00;21.00;65.80
7218;DHT22;3650;53.580;10.094;2023-07-13T15:05:29;21.00;65.30
7218;DHT22;3650;53.580;10.094;2023-07-13T15:07:58;21.00;65.40
7218;DHT22;3650;53.580;10.094;2023-07-13T15:10:28;21.00;65.50
7218;DHT22;3650;53.580;10.094;2023-07-13T15:12:59;21.00;65.50
7218;DHT22;3650;53.580;10.094;2023-07-13T15:15:29;21.00;65.10
7218;DHT22;3650;53.580;10.094;2023-07-13T15:17:57;21.00;66.20
7218;DHT22;3650;53.580;10.094;2023-07-13T15:20:27;21.00;65.20
7218;DHT22;3650;53.580;10.094;2023-07-13T15:22:55;21.00;65.00
7218;DHT22;3650;53.580;10.094;2023-07-13T15:25:23;21.10;64.40
7218;DHT22;3650;53.580;10.094;2023-07-13T15:27:52;21.10;63.70
7218;DHT22;3650;53.580;10.094;2023-07-13T15:30:20;21.10;64.10
7218;DHT22;3650;53.580;10.094;2023-07-13T15:32:47;21.10;64.40
7218;DHT22;3650;53.580;10.094;2023-07-13T15:35:16;21.10;64.10
7218;DHT22;3650;53.580;10.094;2023-07-13T15:37:43;21.10;62.30
7218;DHT22;3650;53.580;10.094;2023-07-13T15:40:12;21.10;63.20
7218;DHT22;3650;53.580;10.094;2023-07-13T15:42:40;21.10;62.90
7218;DHT22;3650;53.580;10.094;2023-07-13T15:45:16;21.10;62.80
7218;DHT22;3650;53.580;10.094;2023-07-13T15:47:43;21.10;62.30
7218;DHT22;3650;53.580;10.094;2023-07-13T15:50:14;21.00;61.20
7218;DHT22;3650;53.580;10.094;2023-07-13T15:52:42;21.00;62.10
7218;DHT22;3650;53.580;10.094;2023-07-13T15:55:11;21.00;62.30
7218;DHT22;3650;53.580;10.094;2023-07-13T15:57:39;21.10;60.10